createdAt,value
2022-10-19T00:01:18.902Z,60.56
2022-10-19T00:03:51.000Z,63.92
2022-10-19T00:06:28.099Z,64.63
2022-10-19T00:09:09.817Z,62.36
2022-10-19T00:11:42.379Z,59.89
2022-10-19T00:14:16.080Z,57.02
2022-10-19T00:16:46.359Z,57.76
2022-10-19T00:19:20.616Z,60.24
2022-10-19T00:24:22.677Z,64.25
2022-10-19T00:26:50.386Z,61.88
2022-10-19T00:29:18.165Z,58.30
2022-10-19T00:31:46.205Z,58.43
2022-10-19T00:34:13.912Z,60.86
2022-10-19T00:36:41.945Z,64.18
2022-10-19T00:39:15.356Z,64.68
2022-10-19T00:41:46.403Z,62.82
2022-10-19T00:44:13.984Z,62.01
2022-10-19T00:46:48.952Z,60.44
2022-10-19T00:49:28.687Z,59.82
2022-10-19T00:52:05.161Z,58.14
2022-10-19T00:54:34.958Z,59.31
2022-10-19T00:57:05.077Z,62.83
2022-10-19T00:59:34.710Z,63.68
2022-10-19T01:02:06.259Z,62.75
2022-10-19T01:04:39.255Z,61.72
2022-10-19T01:07:08.302Z,59.96
2022-10-19T01:09:36.117Z,57.51
2022-10-19T01:12:59.650Z,58.42
2022-10-19T01:18:36.817Z,65.04
2022-10-19T01:21:32.354Z,61.29
2022-10-19T01:24:48.223Z,60.31
2022-10-19T01:27:47.276Z,59.88
2022-10-19T01:30:34.545Z,58.77
2022-10-19T01:33:35.829Z,59.94
2022-10-19T01:36:25.198Z,65.18
2022-10-19T01:39:10.498Z,62.92
2022-10-19T01:42:21.643Z,59.92
2022-10-19T01:45:08.755Z,57.81
2022-10-19T01:48:07.000Z,60.33
2022-10-19T01:50:54.151Z,65.85
2022-10-19T01:53:24.648Z,62.73
2022-10-19T01:55:55.622Z,59.27
2022-10-19T01:58:31.621Z,58.80
2022-10-19T02:01:05.367Z,62.04
2022-10-19T02:03:35.854Z,65.69
2022-10-19T02:06:10.221Z,63.00
2022-10-19T02:08:47.024Z,61.61
2022-10-19T02:11:16.660Z,56.98
2022-10-19T02:13:48.427Z,58.51
2022-10-19T02:16:29.716Z,61.44
2022-10-19T02:19:01.054Z,67.14
2022-10-19T02:21:29.057Z,66.10
2022-10-19T02:23:56.882Z,61.50
2022-10-19T02:26:24.625Z,56.98
2022-10-19T02:28:56.509Z,57.11
2022-10-19T02:31:26.438Z,61.07
2022-10-19T02:33:54.978Z,65.50
2022-10-19T02:36:22.885Z,64.77
2022-10-19T02:38:50.734Z,61.38
2022-10-19T02:41:27.226Z,57.68
2022-10-19T02:44:04.385Z,57.52
2022-10-19T02:46:41.959Z,61.50
2022-10-19T02:49:12.065Z,67.07
2022-10-19T02:52:00.645Z,66.79
2022-10-19T02:54:29.017Z,63.48
2022-10-19T02:56:57.682Z,60.37
2022-10-19T02:59:26.251Z,56.67
2022-10-19T03:01:54.044Z,57.54
2022-10-19T03:04:21.787Z,63.17
2022-10-19T03:06:49.535Z,64.14
2022-10-19T03:09:17.438Z,60.42
2022-10-19T03:11:45.150Z,59.43
2022-10-19T03:14:12.856Z,57.49
2022-10-19T03:16:40.554Z,59.14
2022-10-19T03:19:08.250Z,64.71
2022-10-19T03:21:36.056Z,65.40
2022-10-19T03:24:03.938Z,62.72
2022-10-19T03:26:31.722Z,57.81
2022-10-19T03:28:59.518Z,57.51
2022-10-19T03:31:27.410Z,61.29
2022-10-19T03:33:55.490Z,66.94
2022-10-19T03:36:27.618Z,66.52
2022-10-19T03:38:59.507Z,63.24
2022-10-19T03:41:30.503Z,60.56
2022-10-19T03:46:31.535Z,56.35
2022-10-19T03:48:59.613Z,59.47
2022-10-19T03:51:30.842Z,65.18
2022-10-19T03:54:05.251Z,66.58
2022-10-19T03:56:35.518Z,63.43
2022-10-19T03:59:05.736Z,61.85
2022-10-19T04:01:40.479Z,57.08
2022-10-19T04:04:17.399Z,56.05
2022-10-19T04:06:49.523Z,58.58
2022-10-19T04:09:20.769Z,65.43
2022-10-19T04:11:50.086Z,66.21
2022-10-19T04:14:32.695Z,61.12
2022-10-19T04:17:07.006Z,57.20
2022-10-19T04:19:34.774Z,57.34
2022-10-19T04:22:03.527Z,62.79
2022-10-19T04:24:31.249Z,64.24
2022-10-19T04:26:58.948Z,61.29
2022-10-19T04:29:29.757Z,57.92
2022-10-19T04:31:59.832Z,56.80
2022-10-19T04:34:27.807Z,59.18
2022-10-19T04:36:55.696Z,66.05
2022-10-19T04:39:23.458Z,67.03
2022-10-19T04:41:51.101Z,63.08
2022-10-19T04:44:18.978Z,57.66
2022-10-19T04:46:46.738Z,57.20
2022-10-19T04:49:17.792Z,60.14
2022-10-19T04:51:48.034Z,66.23
2022-10-19T04:54:15.747Z,68.10
2022-10-19T04:56:43.598Z,63.43
2022-10-19T04:59:11.323Z,58.31
2022-10-19T05:01:42.201Z,57.21
2022-10-19T05:04:12.402Z,59.66
2022-10-19T05:06:40.117Z,65.60
2022-10-19T05:09:07.811Z,66.88
2022-10-19T05:11:35.603Z,62.61
2022-10-19T05:14:03.291Z,57.43
2022-10-19T05:16:30.978Z,56.28
2022-10-19T05:18:59.811Z,58.25
2022-10-19T05:21:29.519Z,64.62
2022-10-19T05:23:58.171Z,67.03
2022-10-19T05:26:28.140Z,62.83
2022-10-19T05:29:04.885Z,57.04
2022-10-19T05:31:34.247Z,55.68
2022-10-19T05:34:04.337Z,58.28
2022-10-19T05:36:37.037Z,64.33
2022-10-19T05:39:14.129Z,66.62
2022-10-19T05:41:46.976Z,62.88
2022-10-19T05:44:21.660Z,56.84
2022-10-19T05:46:51.710Z,55.30
2022-10-19T05:49:22.532Z,57.69
2022-10-19T05:51:50.803Z,64.25
2022-10-19T05:54:19.140Z,64.99
2022-10-19T05:56:47.578Z,61.30
2022-10-19T05:59:19.317Z,57.28
2022-10-19T06:01:48.249Z,56.75
2022-10-19T06:06:46.127Z,65.95
2022-10-19T06:09:13.957Z,66.33
2022-10-19T06:11:43.234Z,61.94
2022-10-19T06:14:15.460Z,57.24
2022-10-19T06:16:46.138Z,56.30
2022-10-19T06:19:14.400Z,58.16
2022-10-19T06:21:46.647Z,63.99
2022-10-19T06:24:15.019Z,65.83
2022-10-19T06:26:43.019Z,61.76
2022-10-19T06:29:11.332Z,57.09
2022-10-19T06:31:39.048Z,55.71
2022-10-19T06:34:07.435Z,57.42
2022-10-19T06:36:35.691Z,63.86
2022-10-19T06:39:04.214Z,64.92
2022-10-19T06:41:33.018Z,58.09
2022-10-19T06:44:00.777Z,55.29
2022-10-19T06:46:28.581Z,57.55
2022-10-19T06:48:59.862Z,58.53
2022-10-19T06:51:30.644Z,65.76
2022-10-19T06:53:58.493Z,66.57
2022-10-19T06:56:26.898Z,65.81
2022-10-19T06:58:55.864Z,56.64
2022-10-19T07:01:24.271Z,54.37
2022-10-19T07:03:53.811Z,57.62
2022-10-19T07:06:23.136Z,63.56
2022-10-19T07:08:52.323Z,64.24
2022-10-19T07:11:22.811Z,53.10
2022-10-19T07:13:52.871Z,51.56
2022-10-19T07:16:21.942Z,52.93
2022-10-19T07:18:53.054Z,55.05
2022-10-19T07:21:23.432Z,57.01
2022-10-19T07:23:52.106Z,58.89
2022-10-19T07:26:27.327Z,61.71
2022-10-19T07:28:57.576Z,68.64
2022-10-19T07:31:27.987Z,63.91
2022-10-19T07:33:59.597Z,56.49
2022-10-19T07:36:30.654Z,54.49
2022-10-19T07:38:58.562Z,56.74
2022-10-19T07:41:26.928Z,59.15
2022-10-19T07:43:55.116Z,64.57
2022-10-19T07:46:29.236Z,63.48
2022-10-19T07:48:57.297Z,55.50
2022-10-19T07:51:26.581Z,54.08
2022-10-19T07:53:54.314Z,55.37
2022-10-19T07:56:25.139Z,56.70
2022-10-19T07:58:56.450Z,60.12
2022-10-19T08:01:34.868Z,60.71
2022-10-19T08:06:50.690Z,64.31
2022-10-19T08:09:47.203Z,54.29
2022-10-19T08:12:07.171Z,51.25
2022-10-19T08:14:34.993Z,52.05
2022-10-19T08:17:02.957Z,54.37
2022-10-19T08:19:31.009Z,55.76
2022-10-19T08:21:58.829Z,56.32
2022-10-19T08:24:26.596Z,59.83
2022-10-19T08:26:54.383Z,59.84
2022-10-19T08:29:22.677Z,60.43
2022-10-19T08:31:51.614Z,65.59
2022-10-19T08:34:19.426Z,64.83
2022-10-19T08:36:47.194Z,57.13
2022-10-19T08:39:15.029Z,54.09
2022-10-19T08:42:17.689Z,54.57
2022-10-19T08:48:37.227Z,58.35
2022-10-19T08:51:09.401Z,59.27
2022-10-19T08:53:43.215Z,60.84
2022-10-19T08:56:51.365Z,66.64
2022-10-19T08:59:45.007Z,63.11
2022-10-19T09:02:47.024Z,51.63
2022-10-19T09:05:40.888Z,50.27
2022-10-19T09:08:17.471Z,51.77
2022-10-19T09:10:51.131Z,52.42
2022-10-19T09:13:41.708Z,54.12
2022-10-19T09:16:21.548Z,55.97
2022-10-19T09:18:49.714Z,57.20
2022-10-19T09:21:31.071Z,59.00
2022-10-19T09:24:25.963Z,60.07
2022-10-19T09:26:59.003Z,60.37
2022-10-19T09:29:48.010Z,61.30
2022-10-19T09:32:47.629Z,61.06
2022-10-19T09:35:37.547Z,60.69
2022-10-19T09:38:07.631Z,60.29
2022-10-19T09:40:35.941Z,60.70
2022-10-19T09:43:20.319Z,57.77
2022-10-19T09:46:19.675Z,57.37
2022-10-19T09:48:51.788Z,58.73
2022-10-19T09:51:21.143Z,57.53
2022-10-19T09:53:53.597Z,56.62
2022-10-19T09:56:27.463Z,56.68
2022-10-19T09:58:58.896Z,56.33
2022-10-19T10:01:43.217Z,57.45
2022-10-19T10:04:18.050Z,57.80
2022-10-19T10:06:48.710Z,55.32
2022-10-19T10:09:27.946Z,55.95
2022-10-19T10:12:00.353Z,56.16
2022-10-19T10:14:35.363Z,55.81
2022-10-19T10:17:08.026Z,55.43
2022-10-19T10:19:36.261Z,55.81
2022-10-19T10:22:04.751Z,56.02
2022-10-19T10:24:34.451Z,56.49
2022-10-19T10:27:06.476Z,57.05
2022-10-19T10:29:39.373Z,57.62
2022-10-19T10:32:13.035Z,58.23
2022-10-19T10:34:53.052Z,58.08
2022-10-19T10:37:37.369Z,58.29
2022-10-19T10:40:23.284Z,57.55
2022-10-19T10:42:55.039Z,58.03
2022-10-19T10:45:46.590Z,57.17
2022-10-19T10:48:40.426Z,56.58
2022-10-19T10:51:33.206Z,55.99
2022-10-19T10:54:31.447Z,55.19
2022-10-19T10:57:16.964Z,55.90
2022-10-19T10:59:55.526Z,56.05
2022-10-19T11:02:52.337Z,56.08
2022-10-19T11:05:29.343Z,56.20
2022-10-19T11:08:14.755Z,56.16
2022-10-19T11:11:06.626Z,56.35
2022-10-19T11:13:59.267Z,57.24
2022-10-19T11:16:57.883Z,56.86
2022-10-19T11:19:35.034Z,56.65
2022-10-19T11:22:37.742Z,55.67
2022-10-19T11:25:16.435Z,53.69
2022-10-19T11:28:16.628Z,52.78
2022-10-19T11:31:01.475Z,51.41
2022-10-19T11:33:40.378Z,53.30
2022-10-19T11:36:54.558Z,54.20
2022-10-19T11:40:02.176Z,55.11
2022-10-19T11:42:44.135Z,55.26
2022-10-19T11:45:48.474Z,55.11
2022-10-19T11:48:54.953Z,55.52
2022-10-19T11:51:51.865Z,55.82
2022-10-19T11:54:37.680Z,56.04
2022-10-19T11:57:52.461Z,55.88
2022-10-19T12:00:38.177Z,55.97
2022-10-19T12:03:15.787Z,55.87
2022-10-19T12:06:23.897Z,55.02
2022-10-19T12:09:16.549Z,55.48
2022-10-19T12:12:40.381Z,56.26
2022-10-19T12:15:11.043Z,57.00
2022-10-19T12:17:45.074Z,57.09
2022-10-19T12:20:44.968Z,56.94
2022-10-19T12:23:33.561Z,57.06
2022-10-19T12:26:07.500Z,57.43
2022-10-19T12:28:41.982Z,57.59
2022-10-19T12:31:12.026Z,57.77
2022-10-19T12:33:54.437Z,58.15
2022-10-19T12:37:12.212Z,58.19
2022-10-19T12:39:58.074Z,58.42
2022-10-19T12:42:52.308Z,58.07
2022-10-19T12:45:36.533Z,57.82
2022-10-19T12:48:15.874Z,57.19
2022-10-19T12:50:49.777Z,55.72
2022-10-19T12:53:38.471Z,55.27
2022-10-19T12:56:16.530Z,55.87
2022-10-19T12:58:46.706Z,56.00
2022-10-19T13:01:35.954Z,55.78
2022-10-19T13:04:33.529Z,55.65
2022-10-19T13:07:11.005Z,55.31
2022-10-19T13:09:42.683Z,53.75
2022-10-19T13:12:16.461Z,53.14
2022-10-19T13:15:00.695Z,53.21
2022-10-19T13:17:34.875Z,53.12
2022-10-19T13:20:14.897Z,53.86
2022-10-19T13:22:49.836Z,54.13
2022-10-19T13:25:27.273Z,53.25
2022-10-19T13:28:00.115Z,53.48
2022-10-19T13:30:37.082Z,53.96
2022-10-19T13:33:24.875Z,54.29
2022-10-19T13:35:58.734Z,53.93
2022-10-19T13:38:49.376Z,53.82
2022-10-19T13:41:36.788Z,53.84
2022-10-19T13:44:14.069Z,53.84
2022-10-19T13:47:21.826Z,53.67
2022-10-19T13:50:01.848Z,54.40
2022-10-19T13:53:07.009Z,54.74
2022-10-19T13:56:08.818Z,55.15
2022-10-19T13:59:07.435Z,55.48
2022-10-19T14:02:18.012Z,55.89
2022-10-19T14:05:11.685Z,56.06
2022-10-19T14:08:01.596Z,56.79
2022-10-19T14:10:32.904Z,58.09
2022-10-19T14:13:05.285Z,59.06
2022-10-19T14:15:35.684Z,59.84
2022-10-19T14:18:05.827Z,67.98
2022-10-19T14:20:38.867Z,68.40
2022-10-19T14:23:28.891Z,57.90
2022-10-19T14:26:34.230Z,52.98
2022-10-19T14:29:04.164Z,53.36
2022-10-19T14:31:37.393Z,55.09
2022-10-19T14:34:09.522Z,56.25
2022-10-19T14:36:45.215Z,57.63
2022-10-19T14:39:31.577Z,58.34
2022-10-19T14:42:06.158Z,58.49
2022-10-19T14:44:40.992Z,59.23
2022-10-19T14:47:30.470Z,60.07
2022-10-19T14:49:58.221Z,67.97
2022-10-19T14:52:39.660Z,69.36
2022-10-19T14:55:18.204Z,57.72
2022-10-19T14:57:51.319Z,51.63
2022-10-19T15:00:24.124Z,51.33
2022-10-19T15:03:01.824Z,53.27
2022-10-19T15:05:35.071Z,54.23
2022-10-19T15:08:17.643Z,55.06
2022-10-19T15:10:48.275Z,56.38
2022-10-19T15:13:31.810Z,57.96
2022-10-19T15:15:59.664Z,58.42
2022-10-19T15:18:49.788Z,58.80
2022-10-19T15:21:21.763Z,59.32
2022-10-19T15:23:52.734Z,60.05
2022-10-19T15:26:26.198Z,60.29
2022-10-19T15:29:07.858Z,61.28
2022-10-19T15:31:35.961Z,61.40
2022-10-19T15:34:05.573Z,61.82
2022-10-19T15:36:33.692Z,66.85
2022-10-19T15:39:18.446Z,67.27
2022-10-19T15:41:53.188Z,56.94
2022-10-19T15:44:42.630Z,51.98
2022-10-19T15:47:16.517Z,52.15
2022-10-19T15:49:44.592Z,53.35
2022-10-19T15:52:26.166Z,54.82
2022-10-19T15:54:57.837Z,55.93
2022-10-19T15:57:32.168Z,57.39
2022-10-19T16:00:08.053Z,58.38
2022-10-19T16:02:35.830Z,59.75
2022-10-19T16:05:03.791Z,61.12
2022-10-19T16:07:38.801Z,62.07
2022-10-19T16:10:14.537Z,68.96
2022-10-19T16:12:42.556Z,67.51
2022-10-19T16:15:22.529Z,55.84
2022-10-19T16:17:59.172Z,52.68
2022-10-19T16:20:29.759Z,54.10
2022-10-19T16:22:58.373Z,55.94
2022-10-19T16:25:27.963Z,57.50
2022-10-19T16:27:55.718Z,58.46
2022-10-19T16:30:23.458Z,59.31
2022-10-19T16:32:51.419Z,67.07
2022-10-19T16:35:19.167Z,69.27
2022-10-19T16:37:46.901Z,61.42
2022-10-19T16:40:14.674Z,54.36
2022-10-19T16:42:42.630Z,51.67
2022-10-19T16:45:11.160Z,52.26
2022-10-19T16:47:38.898Z,53.52
2022-10-19T16:50:07.434Z,54.73
2022-10-19T16:52:35.501Z,56.46
2022-10-19T16:55:03.928Z,57.74
2022-10-19T16:57:31.610Z,63.39
2022-10-19T16:59:59.335Z,67.25
2022-10-19T17:02:27.221Z,56.14
2022-10-19T17:04:54.888Z,52.97
2022-10-19T17:07:23.128Z,54.66
2022-10-19T17:09:54.460Z,57.06
2022-10-19T17:12:22.913Z,58.29
2022-10-19T17:14:51.462Z,60.17
2022-10-19T17:17:19.280Z,65.12
2022-10-19T17:19:48.419Z,65.59
2022-10-19T17:22:16.243Z,57.65
2022-10-19T17:24:46.443Z,54.12
2022-10-19T17:27:14.719Z,55.75
2022-10-19T17:29:42.688Z,58.57
2022-10-19T17:32:10.418Z,60.50
2022-10-19T17:34:38.233Z,62.80
2022-10-19T17:37:06.315Z,68.23
2022-10-19T17:39:34.106Z,64.86
2022-10-19T17:42:03.445Z,57.71
2022-10-19T17:44:31.764Z,54.63
2022-10-19T17:47:01.164Z,55.74
2022-10-19T17:49:30.216Z,57.64
2022-10-19T17:51:58.609Z,59.34
2022-10-19T17:54:26.797Z,65.86
2022-10-19T17:56:54.651Z,68.27
2022-10-19T17:59:30.471Z,62.08
2022-10-19T18:02:06.434Z,55.39
2022-10-19T18:07:04.051Z,54.36
2022-10-19T18:09:31.760Z,55.92
2022-10-19T18:12:03.487Z,56.87
2022-10-19T18:14:35.323Z,57.79
2022-10-19T18:17:03.063Z,66.67
2022-10-19T18:19:30.780Z,67.43
2022-10-19T18:22:00.831Z,58.28
2022-10-19T18:24:28.829Z,54.27
2022-10-19T18:26:57.527Z,55.61
2022-10-19T18:29:26.600Z,57.77
2022-10-19T18:31:55.129Z,59.39
2022-10-19T18:34:27.097Z,64.53
2022-10-19T18:36:55.356Z,65.74
2022-10-19T18:39:23.584Z,56.40
2022-10-19T18:41:55.403Z,54.26
2022-10-19T18:44:27.272Z,55.81
2022-10-19T18:46:59.013Z,58.00
2022-10-19T18:49:26.849Z,60.36
2022-10-19T18:51:55.879Z,66.21
2022-10-19T18:54:26.594Z,65.89
2022-10-19T18:56:55.815Z,57.00
2022-10-19T19:01:53.486Z,55.41
2022-10-19T19:04:21.405Z,57.37
2022-10-19T19:06:49.142Z,59.28
2022-10-19T19:09:19.012Z,65.09
2022-10-19T19:11:48.289Z,66.01
2022-10-19T19:14:21.168Z,57.64
2022-10-19T19:16:49.068Z,53.61
2022-10-19T19:19:19.453Z,55.92
2022-10-19T19:21:49.191Z,57.73
2022-10-19T19:24:22.170Z,60.02
2022-10-19T19:26:53.931Z,65.67
2022-10-19T19:29:24.970Z,67.15
2022-10-19T19:31:53.657Z,57.18
2022-10-19T19:34:22.539Z,53.43
2022-10-19T19:36:50.316Z,54.96
2022-10-19T19:39:21.387Z,57.36
2022-10-19T19:41:50.994Z,59.44
2022-10-19T19:44:19.346Z,65.17
2022-10-19T19:46:47.967Z,65.71
2022-10-19T19:49:15.969Z,56.93
2022-10-19T19:51:45.240Z,53.00
2022-10-19T19:54:12.997Z,54.12
2022-10-19T19:56:42.602Z,55.95
2022-10-19T19:59:13.048Z,58.19
2022-10-19T20:01:41.856Z,59.37
2022-10-19T20:04:11.120Z,67.06
2022-10-19T20:06:41.063Z,68.54
2022-10-19T20:09:12.749Z,58.58
2022-10-19T20:11:42.563Z,52.65
2022-10-19T20:14:12.198Z,53.64
2022-10-19T20:16:40.983Z,55.57
2022-10-19T20:19:14.528Z,57.31
2022-10-19T20:21:42.254Z,59.15
2022-10-19T20:24:10.423Z,65.03
2022-10-19T20:26:38.622Z,67.81
2022-10-19T20:29:07.040Z,58.32
2022-10-19T20:31:39.635Z,53.14
2022-10-19T20:34:14.194Z,54.39
2022-10-19T20:36:42.693Z,55.57
2022-10-19T20:39:10.622Z,58.39
2022-10-19T20:41:38.822Z,60.15
2022-10-19T20:44:06.924Z,67.24
2022-10-19T20:46:37.154Z,68.74
2022-10-19T20:49:05.079Z,59.10
2022-10-19T20:51:39.133Z,53.54
2022-10-19T20:54:12.464Z,54.52
2022-10-19T20:56:42.322Z,56.54
2022-10-19T20:59:18.518Z,58.16
2022-10-19T21:01:50.948Z,60.14
2022-10-19T21:04:19.452Z,67.60
2022-10-19T21:06:50.039Z,66.89
2022-10-19T21:09:23.339Z,56.75
2022-10-19T21:11:52.730Z,53.11
2022-10-19T21:14:27.230Z,54.31
2022-10-19T21:17:08.494Z,57.22
2022-10-19T21:19:36.370Z,59.46
2022-10-19T21:22:04.231Z,66.04
2022-10-19T21:24:36.797Z,67.88
2022-10-19T21:27:09.289Z,58.04
2022-10-19T21:29:37.360Z,52.79
2022-10-19T21:32:05.406Z,53.88
2022-10-19T21:34:33.256Z,56.25
2022-10-19T21:37:01.129Z,57.80
2022-10-19T21:39:29.151Z,60.18
2022-10-19T21:41:57.226Z,66.04
2022-10-19T21:44:25.111Z,66.72
2022-10-19T21:46:52.835Z,56.85
2022-10-19T21:49:20.595Z,53.43
2022-10-19T21:51:53.728Z,55.10
2022-10-19T21:54:25.195Z,57.07
2022-10-19T21:56:55.873Z,59.18
2022-10-19T21:59:24.927Z,60.84
2022-10-19T22:01:54.748Z,67.63
2022-10-19T22:04:23.027Z,66.32
2022-10-19T22:06:51.009Z,56.34
2022-10-19T22:09:21.929Z,52.86
2022-10-19T22:11:49.733Z,54.56
2022-10-19T22:14:18.182Z,56.57
2022-10-19T22:16:45.990Z,58.04
2022-10-19T22:19:14.411Z,60.06
2022-10-19T22:21:42.166Z,66.14
2022-10-19T22:24:15.594Z,66.87
2022-10-19T22:26:47.457Z,57.20
2022-10-19T22:29:15.320Z,53.00
2022-10-19T22:31:43.462Z,55.00
2022-10-19T22:34:16.138Z,57.50
2022-10-19T22:36:45.484Z,58.59
2022-10-19T22:39:13.656Z,59.65
2022-10-19T22:41:41.391Z,61.59
2022-10-19T22:44:09.073Z,67.49
2022-10-19T22:46:36.811Z,67.18
2022-10-19T22:49:04.662Z,57.06
2022-10-19T22:51:32.786Z,52.73
2022-10-19T22:54:00.665Z,54.87
2022-10-19T22:56:28.454Z,57.16
2022-10-19T22:59:01.571Z,59.24
2022-10-19T23:01:29.528Z,61.36
2022-10-19T23:03:57.425Z,66.17
2022-10-19T23:06:26.146Z,66.39
2022-10-19T23:08:54.605Z,57.43
2022-10-19T23:11:23.390Z,53.36
2022-10-19T23:13:51.346Z,54.70
2022-10-19T23:16:19.509Z,56.87
2022-10-19T23:18:47.346Z,58.64
2022-10-19T23:21:15.699Z,60.00
2022-10-19T23:23:43.420Z,65.54
2022-10-19T23:26:16.001Z,68.59
2022-10-19T23:28:47.249Z,58.22
2022-10-19T23:31:25.554Z,53.12
2022-10-19T23:33:54.228Z,53.25
2022-10-19T23:36:27.033Z,55.99
2022-10-19T23:38:56.724Z,57.93
2022-10-19T23:41:24.486Z,58.94
2022-10-19T23:43:52.249Z,64.64
2022-10-19T23:46:20.453Z,65.53
2022-10-19T23:48:48.207Z,56.37
2022-10-19T23:51:20.412Z,52.51
2022-10-19T23:53:51.371Z,54.44
2022-10-19T23:56:25.790Z,56.72
2022-10-19T23:58:55.106Z,58.68
